Time;durP1;ratioP1;P1;durP2;ratioP2;P2;SDS_P1;SDS_P2;PMS_P1;PMS_P2;Temp;Humidity;BMP_temperature;BMP_pressure;BME280_temperature;BME280_humidity;BME280_pressure;Samples;Min_cycle;Max_cycle;Signal;HPM_P1;HPM_P2
2023/08/21 00:02:23;;;;;;;26.00;18.40;;;;;;;29.06;49.09;101542.75;6140358;23;20388;-82
2023/08/21 00:04:50;;;;;;;26.80;19.35;;;;;;;29.15;49.17;101555.84;6147412;23;20029;-82
2023/08/21 00:07:17;;;;;;;23.52;18.48;;;;;;;29.13;49.33;101568.94;6150401;23;20028;-82
2023/08/21 00:09:44;;;;;;;30.30;19.75;;;;;;;29.07;49.60;101561.66;6138343;23;20032;-82
2023/08/21 00:12:11;;;;;;;26.17;18.83;;;;;;;29.02;49.69;101545.09;6154727;23;20103;-80
2023/08/21 00:14:38;;;;;;;25.45;18.83;;;;;;;29.10;49.95;101565.81;6133932;23;20020;-81
2023/08/21 00:17:05;;;;;;;19.25;16.33;;;;;;;28.77;49.93;101518.81;6139597;23;20031;-81
2023/08/21 00:19:32;;;;;;;22.25;17.42;;;;;;;29.06;49.89;101584.59;6149916;23;20025;-81
2023/08/21 00:22:03;;;;;;;32.00;18.75;;;;;;;28.99;49.77;101564.72;6135180;23;20271;-81
2023/08/21 00:24:30;;;;;;;27.95;18.45;;;;;;;29.08;49.87;101573.41;6148160;23;20021;-80
2023/08/21 00:26:57;;;;;;;28.42;17.85;;;;;;;28.96;50.10;101559.72;6139124;23;20262;-80
2023/08/21 00:29:27;;;;;;;22.20;18.70;;;;;;;28.83;50.18;101538.06;6122339;23;20266;-82
2023/08/21 00:31:54;;;;;;;23.83;18.40;;;;;;;28.86;50.22;101552.13;6147861;23;20328;-81
2023/08/21 00:34:20;;;;;;;23.17;18.38;;;;;;;28.76;50.57;101533.56;6135858;23;20410;-81
2023/08/21 00:36:50;;;;;;;23.95;18.20;;;;;;;28.94;50.83;101570.06;6134986;23;20507;-81
2023/08/21 00:39:20;;;;;;;23.63;19.15;;;;;;;28.96;50.64;101567.94;6159837;23;20020;-82
2023/08/21 00:41:48;;;;;;;23.58;17.83;;;;;;;28.40;50.35;101479.03;6154359;23;20410;-80
2023/08/21 00:44:15;;;;;;;27.02;18.13;;;;;;;28.87;50.73;101561.13;6125235;23;20457;-81
2023/08/21 00:46:42;;;;;;;21.88;17.65;;;;;;;28.71;50.46;101541.59;6150790;23;20096;-83
2023/08/21 00:49:11;;;;;;;26.48;18.75;;;;;;;28.86;50.57;101564.91;6140592;23;20052;-83
2023/08/21 00:51:38;;;;;;;24.67;17.08;;;;;;;28.59;50.56;101516.16;6151090;23;20045;-83
2023/08/21 00:54:05;;;;;;;24.10;18.25;;;;;;;28.85;50.66;101564.09;6130749;23;20025;-82
2023/08/21 00:56:32;;;;;;;23.27;18.10;;;;;;;28.77;50.44;101550.78;6138943;23;20401;-84
2023/08/21 00:58:58;;;;;;;28.17;19.38;;;;;;;28.82;50.83;101564.56;6151940;23;20040;-82
2023/08/21 01:01:25;;;;;;;23.83;19.20;;;;;;;28.70;50.84;101556.34;6145314;23;20165;-83
2023/08/21 01:03:52;;;;;;;19.35;17.08;;;;;;;28.62;50.82;101550.38;6159049;23;20376;-83
2023/08/21 01:06:20;;;;;;;25.25;17.83;;;;;;;28.72;50.72;101559.69;6170836;23;20020;-83
2023/08/21 01:08:52;;;;;;;25.30;18.30;;;;;;;28.85;51.27;101568.72;6144962;23;20063;-83
2023/08/21 01:11:58;;;;;;;23.10;19.10;;;;;;;28.83;51.62;101570.88;6152819;23;20027;-83
2023/08/21 01:14:31;;;;;;;23.40;18.17;;;;;;;28.77;51.61;101583.56;6153527;23;20690;-83
2023/08/21 01:17:02;;;;;;;25.70;18.90;;;;;;;28.69;51.73;101575.69;6141688;23;20025;-82
2023/08/21 01:19:44;;;;;;;24.83;18.60;;;;;;;28.67;51.62;101578.69;6153082;23;20019;-83
2023/08/21 01:22:12;;;;;;;25.88;18.27;;;;;;;28.46;51.52;101551.88;6154149;23;20028;-83
2023/08/21 01:24:39;;;;;;;25.05;18.92;;;;;;;28.19;51.81;101505.81;6144350;23;20694;-83
2023/08/21 01:27:06;;;;;;;22.55;18.15;;;;;;;28.70;51.52;101589.13;6175999;23;20024;-83
2023/08/21 01:29:34;;;;;;;25.35;19.55;;;;;;;28.62;51.53;101586.75;6154630;23;20035;-82
2023/08/21 01:32:09;;;;;;;21.88;17.83;;;;;;;28.61;51.61;101586.97;6131616;23;20343;-82
2023/08/21 01:34:39;;;;;;;27.48;18.65;;;;;;;27.60;52.16;101428.28;6155616;23;20552;-82
2023/08/21 01:37:07;;;;;;;29.70;17.88;;;;;;;28.55;51.83;101580.53;6158041;23;20103;-83
2023/08/21 01:39:34;;;;;;;24.60;18.40;;;;;;;27.47;52.37;101405.59;6163224;23;20087;-82
2023/08/21 01:42:04;;;;;;;21.98;18.95;;;;;;;28.43;52.58;101574.19;6173224;23;20104;-82
2023/08/21 01:44:31;;;;;;;29.02;18.00;;;;;;;28.12;52.90;101535.13;6143839;23;20028;-82
2023/08/21 01:46:58;;;;;;;26.05;19.05;;;;;;;28.33;52.83;101566.53;6139054;23;20103;-83
2023/08/21 01:49:25;;;;;;;26.30;18.35;;;;;;;28.27;53.09;101562.81;6158456;23;20108;-82
2023/08/21 01:51:52;;;;;;;32.40;19.67;;;;;;;28.22;53.08;101550.94;6147132;23;20048;-83
2023/08/21 01:54:19;;;;;;;23.48;19.23;;;;;;;27.87;53.09;101514.25;6147047;23;20025;-82
2023/08/21 01:56:46;;;;;;;22.08;19.02;;;;;;;28.15;53.27;101556.47;6156645;23;20380;-83
2023/08/21 01:59:12;;;;;;;25.77;20.02;;;;;;;28.22;52.80;101570.88;6154596;23;20027;-82
2023/08/21 02:01:39;;;;;;;27.58;20.95;;;;;;;28.26;53.17;101572.09;6173455;23;20017;-83
2023/08/21 02:04:06;;;;;;;23.77;18.25;;;;;;;28.31;52.99;101569.50;6195591;23;20258;-83
2023/08/21 02:06:33;;;;;;;24.30;19.20;;;;;;;28.22;52.99;101559.94;6184193;23;20318;-83
2023/08/21 02:08:59;;;;;;;25.80;19.83;;;;;;;28.29;53.17;101571.63;6189470;23;20016;-83
2023/08/21 02:11:26;;;;;;;25.85;18.73;;;;;;;28.12;52.96;101554.22;6143475;23;20023;-82
2023/08/21 02:13:53;;;;;;;24.35;19.63;;;;;;;28.26;53.38;101583.00;6149870;23;20075;-82
2023/08/21 02:16:25;;;;;;;24.52;18.60;;;;;;;28.13;53.67;101581.28;6156602;23;20017;-83
2023/08/21 02:18:55;;;;;;;21.58;17.73;;;;;;;28.07;53.30;101579.47;6171395;23;20047;-82
2023/08/21 02:21:22;;;;;;;25.15;20.38;;;;;;;28.03;53.74;101580.16;6169729;23;20024;-82
2023/08/21 02:23:50;;;;;;;22.80;18.27;;;;;;;27.98;53.85;101585.47;6145636;23;20514;-82
2023/08/21 02:26:17;;;;;;;29.63;19.27;;;;;;;27.90;53.79;101568.34;6170143;23;20333;-82
2023/08/21 02:28:43;;;;;;;21.58;19.25;;;;;;;27.88;53.88;101570.47;6139670;23;20094;-83
2023/08/21 02:31:10;;;;;;;25.77;19.85;;;;;;;27.94;53.92;101585.09;6175714;23;20103;-81
2023/08/21 02:33:38;;;;;;;23.05;19.55;;;;;;;27.91;53.57;101572.75;6191316;23;20040;-82
2023/08/21 02:36:07;;;;;;;25.83;19.60;;;;;;;27.94;53.55;101578.78;6134265;23;20025;-84
2023/08/21 02:38:36;;;;;;;24.67;19.48;;;;;;;27.85;53.20;101564.63;6154262;23;20470;-83
2023/08/21 02:41:02;;;;;;;23.02;18.50;;;;;;;27.59;53.17;101528.38;6152540;23;20055;-84
2023/08/21 02:43:29;;;;;;;24.55;18.83;;;;;;;27.77;53.60;101573.94;6157003;23;20507;-84
2023/08/21 02:45:56;;;;;;;24.58;18.88;;;;;;;27.41;53.54;101515.59;6182058;23;20024;-83
2023/08/21 02:48:22;;;;;;;28.33;19.63;;;;;;;27.62;53.87;101570.72;6139420;23;20104;-82
2023/08/21 02:50:49;;;;;;;23.45;18.63;;;;;;;27.61;53.91;101574.53;6143408;23;20095;-82
2023/08/21 02:53:21;;;;;;;24.17;19.70;;;;;;;27.63;54.27;101572.41;6130878;23;20026;-82
2023/08/21 02:55:48;;;;;;;22.05;18.80;;;;;;;27.42;54.07;101552.69;6151942;23;20401;-81
2023/08/21 02:58:15;;;;;;;22.65;18.05;;;;;;;27.41;54.28;101548.31;6143195;23;20456;-82
2023/08/21 03:00:47;;;;;;;21.75;18.98;;;;;;;27.49;54.54;101561.63;6134681;23;20459;-82
2023/08/21 03:03:14;;;;;;;24.95;19.05;;;;;;;27.45;54.40;101554.97;6125362;23;20017;-81
2023/08/21 03:05:40;;;;;;;26.73;19.88;;;;;;;27.58;53.93;101580.44;6127575;23;20279;-81
2023/08/21 03:08:08;;;;;;;23.50;19.23;;;;;;;27.52;54.42;101573.16;6130873;23;20342;-81
2023/08/21 03:10:37;;;;;;;26.23;20.63;;;;;;;27.09;54.41;101506.66;6141347;23;20023;-82
2023/08/21 03:13:03;;;;;;;24.02;19.52;;;;;;;27.55;54.00;101578.16;6147363;23;20543;-82
2023/08/21 03:15:30;;;;;;;28.13;19.75;;;;;;;27.48;54.17;101576.34;6167281;23;20056;-82
2023/08/21 03:17:57;;;;;;;26.92;19.67;;;;;;;27.01;54.71;101515.94;6140101;23;20012;-82
2023/08/21 03:20:24;;;;;;;23.38;19.25;;;;;;;27.32;54.70;101563.28;6167237;23;20078;-82
2023/08/21 03:22:51;;;;;;;27.52;19.35;;;;;;;27.51;54.49;101572.31;6113915;23;20056;-81
2023/08/21 03:25:17;;;;;;;27.65;18.80;;;;;;;26.93;54.02;101460.91;6168650;23;20032;-81
2023/08/21 03:27:49;;;;;;;22.02;18.73;;;;;;;27.68;53.38;101567.09;6165535;23;20020;-82
2023/08/21 03:30:16;;;;;;;26.58;19.58;;;;;;;27.62;53.99;101571.59;6121848;23;20491;-81
2023/08/21 03:32:43;;;;;;;26.20;18.80;;;;;;;27.16;53.16;101495.69;6154538;23;20044;-82
2023/08/21 03:35:10;;;;;;;23.98;19.08;;;;;;;27.65;53.20;101575.75;6143259;23;20028;-81
2023/08/21 03:37:37;;;;;;;24.40;19.40;;;;;;;27.74;52.89;101577.09;6181960;23;20013;-81
2023/08/21 03:40:04;;;;;;;27.33;20.55;;;;;;;27.65;53.51;101571.13;6144140;23;20072;-81
2023/08/21 03:42:31;;;;;;;24.92;18.77;;;;;;;27.55;53.23;101562.63;6159057;23;20023;-82
2023/08/21 03:44:58;;;;;;;25.05;18.73;;;;;;;27.59;53.46;101566.56;6138963;23;20275;-81
2023/08/21 03:47:25;;;;;;;25.20;19.10;;;;;;;27.46;53.65;101562.09;6148615;23;20024;-81
2023/08/21 03:49:52;;;;;;;25.30;19.27;;;;;;;27.63;53.07;101566.97;6141020;23;20025;-82
2023/08/21 03:52:19;;;;;;;26.98;19.65;;;;;;;27.64;53.07;101568.63;6194021;23;20107;-82
2023/08/21 03:54:46;;;;;;;23.85;19.35;;;;;;;27.59;53.04;101563.84;6148218;23;20028;-82
2023/08/21 03:57:15;;;;;;;23.20;18.67;;;;;;;27.43;53.13;101546.19;6182604;23;20028;-82
2023/08/21 03:59:42;;;;;;;26.40;19.35;;;;;;;27.40;53.00;101543.88;6151258;23;20103;-81
2023/08/21 04:02:09;;;;;;;24.17;19.98;;;;;;;27.21;53.36;101525.84;6143335;23;20024;-81
2023/08/21 04:04:40;;;;;;;23.08;19.73;;;;;;;27.36;53.04;101559.06;6161419;23;20017;-82
2023/08/21 04:07:15;;;;;;;27.63;19.98;;;;;;;27.43;53.25;101568.00;6130007;23;20032;-82
2023/08/21 04:09:42;;;;;;;30.42;19.48;;;;;;;27.44;53.58;101571.56;6160332;23;20013;-82
2023/08/21 04:12:09;;;;;;;26.52;19.30;;;;;;;26.70;53.50;101456.06;6161290;23;20416;-82
2023/08/21 04:14:36;;;;;;;25.85;18.48;;;;;;;27.42;53.62;101577.22;6187172;23;20026;-81
2023/08/21 04:17:02;;;;;;;25.90;18.42;;;;;;;27.47;53.47;101599.19;6162492;23;20412;-82
2023/08/21 04:19:32;;;;;;;26.70;19.60;;;;;;;27.44;53.65;101588.75;6167309;23;20031;-82
2023/08/21 04:21:59;;;;;;;23.67;19.08;;;;;;;27.17;53.63;101549.16;6163317;23;20021;-82
2023/08/21 04:24:26;;;;;;;27.23;19.77;;;;;;;27.31;54.17;101588.88;6141008;23;20020;-82
2023/08/21 04:26:52;;;;;;;25.60;19.10;;;;;;;27.30;53.64;101584.47;6129838;23;20028;-82
2023/08/21 04:29:19;;;;;;;24.45;20.05;;;;;;;27.46;53.62;101572.16;6133070;23;20420;-81
2023/08/21 04:31:46;;;;;;;23.15;19.02;;;;;;;27.06;54.22;101546.09;6162017;23;20023;-82
2023/08/21 04:34:13;;;;;;;26.25;18.63;;;;;;;27.37;53.56;101590.69;6176847;23;20051;-80
2023/08/21 04:36:39;;;;;;;28.17;19.67;;;;;;;26.46;53.82;101446.81;6137151;23;20533;-82
2023/08/21 04:39:06;;;;;;;23.65;19.30;;;;;;;27.40;54.13;101606.59;6142616;23;20213;-81
2023/08/21 04:41:33;;;;;;;26.58;19.10;;;;;;;27.13;54.13;101556.91;6133732;23;20430;-81
2023/08/21 04:44:01;;;;;;;22.92;19.55;;;;;;;27.38;54.14;101595.09;6121911;23;20082;-81
2023/08/21 04:46:32;;;;;;;23.55;19.17;;;;;;;26.74;53.47;101477.19;6172283;23;20184;-81
2023/08/21 04:48:58;;;;;;;27.05;20.20;;;;;;;27.48;53.51;101609.06;6149898;23;20111;-81
2023/08/21 04:51:25;;;;;;;24.52;18.27;;;;;;;27.20;53.96;101567.81;6137510;23;20060;-81
2023/08/21 04:53:52;;;;;;;26.25;19.73;;;;;;;27.54;53.61;101596.41;6128668;23;20025;-81
2023/08/21 04:56:19;;;;;;;23.10;18.77;;;;;;;26.96;53.76;101523.13;6180328;23;20024;-81
2023/08/21 04:58:45;;;;;;;25.15;19.80;;;;;;;27.04;53.74;101515.50;6140760;23;20027;-81
2023/08/21 05:01:17;;;;;;;23.10;18.48;;;;;;;27.58;53.64;101605.00;6159859;23;20021;-81
2023/08/21 05:03:44;;;;;;;25.80;19.58;;;;;;;27.00;53.38;101524.34;6118054;23;20029;-82
2023/08/21 05:06:11;;;;;;;23.88;18.20;;;;;;;27.43;53.20;101589.81;6104631;23;20052;-81
2023/08/21 05:08:38;;;;;;;28.00;19.67;;;;;;;27.31;53.62;101574.41;6117624;23;20366;-81
2023/08/21 05:11:07;;;;;;;26.00;19.85;;;;;;;27.11;53.85;101550.03;6091142;23;20186;-83
2023/08/21 05:13:34;;;;;;;27.90;20.58;;;;;;;27.63;53.58;101621.50;6104799;23;20638;-82
2023/08/21 05:16:01;;;;;;;26.20;19.52;;;;;;;27.48;53.33;101591.88;6088118;23;20251;-81
2023/08/21 05:18:32;;;;;;;36.38;22.58;;;;;;;27.54;53.45;101593.69;6097653;23;20225;-81
2023/08/21 05:21:04;;;;;;;26.02;19.23;;;;;;;27.75;52.95;101619.69;6087731;23;20350;-81
2023/08/21 05:23:31;;;;;;;20.17;17.75;;;;;;;27.68;53.39;101625.22;6092659;23;20108;-81
2023/08/21 05:26:02;;;;;;;27.38;18.65;;;;;;;27.92;52.93;101636.34;6043766;23;20169;-82
2023/08/21 05:28:34;;;;;;;24.25;19.77;;;;;;;27.80;52.82;101605.38;6065959;23;20366;-81
2023/08/21 05:31:00;;;;;;;25.77;19.13;;;;;;;28.00;52.89;101643.38;6131757;23;20049;-81
2023/08/21 05:33:30;;;;;;;24.02;19.52;;;;;;;27.84;52.68;101610.19;6136311;23;20029;-83
2023/08/21 05:35:57;;;;;;;25.40;18.65;;;;;;;27.64;52.57;101574.06;6124844;23;20203;-81
2023/08/21 05:38:26;;;;;;;28.38;19.35;;;;;;;28.03;52.50;101640.19;6134847;23;20017;-82
2023/08/21 05:40:53;;;;;;;27.77;18.17;;;;;;;28.00;52.24;101607.91;6134113;23;20045;-81
2023/08/21 05:43:21;;;;;;;26.48;19.52;;;;;;;28.07;52.81;101650.44;6134584;23;20041;-79
2023/08/21 05:45:51;;;;;;;24.85;19.90;;;;;;;27.85;52.76;101608.28;6147862;23;20100;-79
2023/08/21 05:48:18;;;;;;;27.13;20.33;;;;;;;28.17;52.16;101644.44;6139091;23;20454;-82
2023/08/21 05:50:51;;;;;;;33.20;20.35;;;;;;;27.95;52.54;101613.22;6144267;23;20241;-82
2023/08/21 05:53:20;;;;;;;28.42;19.70;;;;;;;27.97;52.75;101611.09;6121888;23;20029;-81
2023/08/21 05:55:48;;;;;;;27.67;19.42;;;;;;;28.03;52.81;101634.72;6110184;23;20021;-81
2023/08/21 05:58:15;;;;;;;25.58;20.17;;;;;;;28.27;52.63;101654.81;6116501;23;20462;-82
2023/08/21 06:00:44;;;;;;;27.13;20.20;;;;;;;28.36;52.46;101660.81;6099875;23;20022;-82
2023/08/21 06:03:11;;;;;;;29.20;20.80;;;;;;;28.30;52.42;101655.22;6126101;23;20468;-81
2023/08/21 06:05:41;;;;;;;30.73;20.92;;;;;;;28.27;53.00;101639.25;6134953;23;20545;-80
2023/08/21 06:08:11;;;;;;;28.70;19.40;;;;;;;28.04;52.95;101606.41;6127430;23;20021;-80
2023/08/21 06:10:37;;;;;;;25.25;18.38;;;;;;;28.11;52.73;101607.16;6100871;23;20551;-80
2023/08/21 06:13:05;;;;;;;31.38;20.08;;;;;;;28.57;52.27;101660.38;6139543;23;20026;-81
2023/08/21 06:15:31;;;;;;;25.35;19.75;;;;;;;28.58;51.92;101663.91;6134586;23;20430;-81
2023/08/21 06:17:59;;;;;;;27.20;20.17;;;;;;;28.53;52.20;101650.94;6143760;23;20463;-80
2023/08/21 06:20:26;;;;;;;32.75;20.77;;;;;;;28.72;52.04;101662.69;6137610;23;20471;-82
2023/08/21 06:22:57;;;;;;;29.65;20.63;;;;;;;28.55;52.42;101646.94;6154048;23;20083;-82
2023/08/21 06:25:24;;;;;;;28.10;20.05;;;;;;;28.64;52.14;101660.25;6154218;23;20184;-82
2023/08/21 06:27:51;;;;;;;23.20;19.80;;;;;;;28.71;52.56;101670.00;6154432;23;20157;-81
2023/08/21 06:30:27;;;;;;;28.00;20.05;;;;;;;28.85;52.00;101676.13;6156752;23;20263;-81
2023/08/21 06:32:55;;;;;;;28.85;22.73;;;;;;;28.65;51.89;101618.22;6113734;23;20531;-81
2023/08/21 06:35:22;;;;;;;30.55;21.52;;;;;;;28.88;52.25;101666.63;6147378;23;20380;-81
2023/08/21 06:37:52;;;;;;;31.58;21.05;;;;;;;28.95;52.08;101679.13;6151280;23;20040;-81
2023/08/21 06:40:18;;;;;;;32.65;20.83;;;;;;;28.93;52.62;101680.44;6175208;23;20021;-80
2023/08/21 06:42:45;;;;;;;25.75;20.95;;;;;;;29.06;52.01;101684.88;6171541;23;20047;-82
2023/08/21 06:45:16;;;;;;;29.50;21.45;;;;;;;28.92;51.30;101640.50;6129950;23;20148;-80
2023/08/21 06:47:47;;;;;;;29.52;20.33;;;;;;;28.94;51.36;101643.84;6138215;23;20459;-82
2023/08/21 06:50:14;;;;;;;27.10;20.70;;;;;;;29.11;51.33;101682.31;6152921;23;20311;-82
2023/08/21 06:52:43;;;;;;;27.30;19.90;;;;;;;28.98;51.45;101653.22;6123911;23;20399;-80
2023/08/21 06:55:10;;;;;;;32.35;21.52;;;;;;;29.19;51.40;101671.84;6117795;23;20483;-82
2023/08/21 06:57:37;;;;;;;30.67;21.83;;;;;;;28.15;50.59;101485.50;6134080;23;20190;-81
2023/08/21 07:00:05;;;;;;;27.75;20.92;;;;;;;29.19;51.45;101677.31;6130584;23;20031;-82
2023/08/21 07:02:34;;;;;;;26.70;20.73;;;;;;;29.10;50.93;101643.19;6135321;23;20024;-82
2023/08/21 07:05:03;;;;;;;24.70;20.38;;;;;;;29.32;51.40;101683.66;6168250;23;20019;-81
2023/08/21 07:07:30;;;;;;;28.83;21.08;;;;;;;29.15;51.29;101651.53;6147941;23;20184;-81
2023/08/21 07:09:57;;;;;;;30.73;21.73;;;;;;;29.18;50.99;101639.31;6137554;23;20208;-82
2023/08/21 07:12:24;;;;;;;30.27;20.92;;;;;;;28.88;51.12;101606.50;6112449;23;20102;-80
2023/08/21 07:14:51;;;;;;;26.25;20.45;;;;;;;29.08;51.40;101656.28;6142436;23;20337;-81
2023/08/21 07:17:18;;;;;;;30.25;22.73;;;;;;;29.51;50.90;101687.94;6137862;23;20189;-81
2023/08/21 07:19:44;;;;;;;28.48;21.52;;;;;;;28.85;51.36;101602.34;6140079;23;20531;-81
2023/08/21 07:22:13;;;;;;;27.63;20.77;;;;;;;29.32;51.79;101683.66;6147640;23;20017;-79
2023/08/21 07:24:40;;;;;;;36.63;22.25;;;;;;;29.47;51.51;101681.31;6141102;23;20084;-82
2023/08/21 07:27:07;;;;;;;25.58;20.92;;;;;;;29.58;51.62;101694.16;6122574;23;20417;-82
2023/08/21 07:29:34;;;;;;;29.00;21.92;;;;;;;29.53;51.68;101666.66;6139551;23;20021;-81
2023/08/21 07:32:02;;;;;;;26.75;21.02;;;;;;;29.60;51.42;101675.59;6148659;23;20009;-81
2023/08/21 07:34:29;;;;;;;26.77;21.23;;;;;;;29.42;51.46;101637.44;6156377;23;20026;-81
2023/08/21 07:36:55;;;;;;;33.28;23.05;;;;;;;29.75;51.49;101688.00;6154536;23;20020;-80
2023/08/21 07:39:23;;;;;;;30.27;21.90;;;;;;;29.70;51.66;101679.69;6137664;23;20361;-81
2023/08/21 07:41:52;;;;;;;28.98;21.00;;;;;;;29.67;51.51;101666.47;6145658;23;20435;-81
2023/08/21 07:44:22;;;;;;;27.25;22.83;;;;;;;29.85;51.75;101684.66;6141134;23;20055;-79
2023/08/21 07:46:49;;;;;;;29.25;21.30;;;;;;;29.71;51.54;101654.81;6127161;23;20129;-81
2023/08/21 07:49:16;;;;;;;27.92;21.13;;;;;;;30.00;51.41;101685.84;6089435;23;20024;-80
2023/08/21 07:51:50;;;;;;;26.60;22.30;;;;;;;30.02;51.62;101691.91;6125314;23;20013;-81
2023/08/21 07:54:27;;;;;;;40.10;22.77;;;;;;;30.02;51.53;101680.13;6126169;23;20064;-82
2023/08/21 07:57:01;;;;;;;40.88;23.40;;;;;;;30.16;51.23;101683.44;6113772;23;20083;-81
2023/08/21 07:59:32;;;;;;;28.50;21.10;;;;;;;30.07;51.37;101687.63;6142856;23;20013;-80
2023/08/21 08:02:03;;;;;;;28.40;22.40;;;;;;;30.07;51.79;101690.34;6118385;23;20337;-80
2023/08/21 08:04:30;;;;;;;37.85;23.20;;;;;;;30.18;51.51;101701.28;6117919;23;20232;-81
2023/08/21 08:07:01;;;;;;;25.15;21.35;;;;;;;30.27;51.59;101685.38;6129162;23;20387;-82
2023/08/21 08:09:28;;;;;;;;;;;;;;;30.29;51.13;101688.66;6146820;23;20025;-81
2023/08/21 08:11:57;;;;;;;31.58;23.10;;;;;;;30.37;50.92;101685.56;6125700;23;20411;-81
2023/08/21 08:14:25;;;;;;;32.70;23.67;;;;;;;30.51;50.61;101682.53;6108107;23;20238;-81
2023/08/21 08:16:51;;;;;;;35.65;23.90;;;;;;;30.30;50.05;101638.31;6117978;23;20315;-80
2023/08/21 08:19:23;;;;;;;32.42;21.38;;;;;;;30.43;50.39;101676.34;6121591;23;20231;-81
2023/08/21 08:21:54;;;;;;;37.90;22.98;;;;;;;30.26;50.85;101661.78;6123479;23;20014;-81
2023/08/21 08:24:21;;;;;;;31.73;23.73;;;;;;;30.47;50.61;101673.16;6123736;23;20471;-82
2023/08/21 08:26:49;;;;;;;35.65;23.15;;;;;;;30.53;50.51;101678.47;6114431;23;20013;-80
2023/08/21 08:29:15;;;;;;;34.20;23.13;;;;;;;30.47;50.07;101660.28;6116376;23;20634;-80
2023/08/21 08:31:42;;;;;;;30.90;23.65;;;;;;;30.41;50.42;101648.38;6114424;23;20104;-81
2023/08/21 08:34:09;;;;;;;30.75;23.67;;;;;;;30.58;49.75;101659.38;6141739;23;20044;-80
2023/08/21 08:36:36;;;;;;;28.05;22.27;;;;;;;30.52;49.99;101643.13;6088773;23;20465;-81
2023/08/21 08:39:02;;;;;;;28.50;20.98;;;;;;;30.60;50.33;101657.25;6123762;23;20219;-81
2023/08/21 08:41:50;;;;;;;34.40;22.70;;;;;;;30.71;49.94;101666.50;6140885;23;20541;-80
2023/08/21 08:44:18;;;;;;;33.95;23.65;;;;;;;30.68;49.62;101653.25;6143499;23;20013;-82
2023/08/21 08:46:45;;;;;;;32.03;22.00;;;;;;;30.61;49.68;101642.47;6147339;23;20025;-82
2023/08/21 08:49:13;;;;;;;25.55;22.08;;;;;;;30.83;49.57;101650.03;6126985;23;20022;-81
2023/08/21 08:51:42;;;;;;;25.88;23.17;;;;;;;30.82;49.73;101654.63;6140928;23;20029;-80
2023/08/21 08:54:11;;;;;;;27.50;22.35;;;;;;;30.76;49.23;101641.09;6128602;23;20014;-81
2023/08/21 08:56:43;;;;;;;27.83;22.10;;;;;;;30.94;49.01;101659.25;6106268;23;20187;-81
2023/08/21 08:59:15;;;;;;;33.67;22.50;;;;;;;30.93;48.62;101627.44;6142324;23;20236;-80
2023/08/21 09:01:42;;;;;;;29.98;21.80;;;;;;;30.89;48.21;101621.63;6143376;23;20035;-82
2023/08/21 09:04:12;;;;;;;24.27;21.50;;;;;;;31.04;48.01;101621.03;6128643;23;20044;-81
2023/08/21 09:06:39;;;;;;;27.77;21.92;;;;;;;31.06;47.86;101614.22;6112762;23;20012;-82
2023/08/21 09:09:08;;;;;;;29.05;22.95;;;;;;;31.35;47.48;101641.56;6140001;23;20276;-80
2023/08/21 09:11:34;;;;;;;24.63;21.15;;;;;;;31.45;46.48;101646.41;6123886;23;20505;-82
2023/08/21 09:14:03;;;;;;;27.08;22.30;;;;;;;31.61;46.19;101656.53;6179208;23;20200;-82
2023/08/21 09:16:30;;;;;;;25.70;20.63;;;;;;;31.64;45.92;101661.53;6175233;23;20039;-82
2023/08/21 09:18:57;;;;;;;27.50;19.98;;;;;;;31.76;45.67;101649.63;6149479;23;20340;-82
2023/08/21 09:21:25;;;;;;;30.88;21.42;;;;;;;31.64;45.42;101611.28;6177627;23;20023;-80
2023/08/21 09:24:02;;;;;;;26.38;21.17;;;;;;;32.02;45.31;101645.31;6142307;23;20021;-78
2023/08/21 09:26:39;;;;;;;29.65;20.25;;;;;;;32.13;44.55;101625.13;6158295;23;20047;-79
2023/08/21 09:29:06;;;;;;;22.95;20.48;;;;;;;32.21;44.45;101621.97;6134599;23;20331;-76
2023/08/21 09:31:33;;;;;;;28.33;19.38;;;;;;;32.34;42.74;101616.06;6115262;23;20016;-78
2023/08/21 09:34:07;;;;;;;24.80;19.40;;;;;;;32.61;41.75;101647.41;6120648;23;20278;-80
2023/08/21 09:36:35;;;;;;;28.25;19.83;;;;;;;32.35;42.27;101579.22;6131335;23;20044;-80
2023/08/21 09:39:03;;;;;;;22.95;20.42;;;;;;;32.69;42.50;101622.19;6171445;23;20028;-78
2023/08/21 09:41:30;;;;;;;24.23;21.33;;;;;;;32.55;42.04;101555.81;6141091;23;20026;-78
2023/08/21 09:44:00;;;;;;;23.05;20.10;;;;;;;32.80;42.28;101584.66;6176198;23;20017;-79
2023/08/21 09:46:28;;;;;;;29.17;20.23;;;;;;;33.09;42.40;101631.94;6130636;23;20012;-79
2023/08/21 09:48:55;;;;;;;25.05;20.63;;;;;;;33.16;41.48;101624.31;6146713;23;20029;-78
2023/08/21 09:51:22;;;;;;;34.42;19.77;;;;;;;33.29;41.38;101625.78;6155242;23;20521;-78
2023/08/21 09:53:55;;;;;;;28.42;19.92;;;;;;;33.25;41.15;101592.44;6125653;23;20039;-78
2023/08/21 09:56:28;;;;;;;30.40;19.00;;;;;;;33.60;40.32;101615.81;6088942;23;20022;-80
2023/08/21 09:58:57;;;;;;;22.70;20.40;;;;;;;33.65;40.29;101602.09;6165425;23;20017;-79
2023/08/21 10:01:24;;;;;;;23.60;19.90;;;;;;;33.51;39.68;101567.84;6181619;23;20012;-79
2023/08/21 10:03:58;;;;;;;24.25;18.73;;;;;;;33.96;39.38;101613.22;6159561;23;20016;-79
2023/08/21 10:06:26;;;;;;;32.72;19.73;;;;;;;33.98;39.42;101619.28;6156682;23;20059;-79
2023/08/21 10:08:56;;;;;;;23.27;19.38;;;;;;;34.15;39.06;101605.34;6172011;23;20021;-80
2023/08/21 10:11:26;;;;;;;22.48;18.85;;;;;;;33.96;39.08;101566.41;6152658;23;20019;-80
2023/08/21 10:13:53;;;;;;;21.35;18.77;;;;;;;34.45;37.94;101610.13;6160096;23;20205;-78
2023/08/21 10:16:22;;;;;;;21.08;17.83;;;;;;;34.55;37.78;101593.59;6140121;23;20036;-78
2023/08/21 10:18:49;;;;;;;29.63;19.02;;;;;;;34.49;38.16;101583.63;6153353;23;20043;-79
2023/08/21 10:21:21;;;;;;;20.00;18.00;;;;;;;34.72;37.68;101604.38;6156120;23;20107;-79
2023/08/21 10:23:50;;;;;;;20.42;18.27;;;;;;;34.77;37.53;101581.50;6112193;23;20479;-82
2023/08/21 10:26:22;;;;;;;20.63;18.05;;;;;;;35.05;37.28;101596.66;6134275;23;20236;-82
2023/08/21 10:28:59;;;;;;;21.77;18.10;;;;;;;35.11;36.23;101584.53;6165592;23;20060;-82
2023/08/21 10:31:30;;;;;;;20.52;17.73;;;;;;;34.97;36.50;101545.63;6111107;23;20033;-83
2023/08/21 10:33:59;;;;;;;21.27;16.05;;;;;;;35.46;34.58;101580.88;6145566;23;20460;-83
2023/08/21 10:36:46;;;;;;;19.35;16.67;;;;;;;35.52;35.35;101589.97;6167994;23;20012;-82
2023/08/21 10:39:18;;;;;;;19.33;17.05;;;;;;;35.62;35.48;101586.41;6113815;23;20017;-83
2023/08/21 10:41:58;;;;;;;20.30;16.70;;;;;;;35.95;34.76;101588.47;6173818;23;20529;-81
2023/08/21 10:44:58;;;;;;;27.10;18.17;;;;;;;36.05;34.57;101579.28;6126125;23;20070;-82
2023/08/21 10:47:33;;;;;;;25.58;15.85;;;;;;;36.16;34.53;101588.38;6160040;23;20515;-82
2023/08/21 10:50:08;;;;;;;17.25;15.65;;;;;;;36.00;33.72;101545.31;6162287;23;20020;-81
2023/08/21 10:52:42;;;;;;;18.23;16.23;;;;;;;36.24;33.68;101573.13;6143396;23;20193;-81
2023/08/21 10:55:10;;;;;;;17.98;15.52;;;;;;;36.32;33.50;101578.06;6146917;23;20094;-82
2023/08/21 10:57:38;;;;;;;16.27;14.65;;;;;;;36.33;34.52;101566.69;6147453;23;20142;-81
2023/08/21 11:00:11;;;;;;;18.50;15.70;;;;;;;36.60;33.70;101581.22;6123790;23;20179;-82
2023/08/21 11:02:46;;;;;;;17.15;15.45;;;;;;;36.47;33.84;101538.41;6112658;23;20259;-82
2023/08/21 11:05:14;;;;;;;19.77;17.05;;;;;;;36.86;33.21;101579.06;6181646;23;20221;-82
2023/08/21 11:07:44;;;;;;;19.98;16.25;;;;;;;36.78;33.36;101537.06;6104933;23;20017;-81
2023/08/21 11:10:23;;;;;;;20.00;14.65;;;;;;;37.00;31.52;101549.59;6090795;23;20096;-83
2023/08/21 11:12:59;;;;;;;16.20;14.50;;;;;;;37.25;30.95;101556.00;6151852;23;20096;-82
2023/08/21 11:15:27;;;;;;;16.92;15.23;;;;;;;37.41;30.58;101563.03;6148563;23;20452;-83
2023/08/21 11:18:02;;;;;;;15.30;13.65;;;;;;;37.39;31.17;101537.59;6147688;23;20017;-82